sensor_id;sensor_type;location;lat;lon;timestamp;temperature;humidity
15481;DHT22;7842;50.904;6.670;2023-03-14T05:38:51;10.50;99.90
15481;DHT22;7842;50.904;6.670;2023-03-14T05:43:43;10.60;99.90
15481;DHT22;7842;50.904;6.670;2023-03-14T06:12:56;10.30;99.90
15481;DHT22;7842;50.904;6.670;2023-03-14T06:17:48;10.30;99.90
15481;DHT22;7842;50.904;6.670;2023-03-14T08:09:55;11.90;99.90
15481;DHT22;7842;50.904;6.670;2023-03-14T08:12:20;11.90;99.90
15481;DHT22;7842;50.904;6.670;2023-03-14T08:26:56;12.00;99.90
15481;DHT22;7842;50.904;6.670;2023-03-14T08:29:22;12.10;99.90
15481;DHT22;7842;50.904;6.670;2023-03-14T08:31:47;12.10;99.90
15481;DHT22;7842;50.904;6.670;2023-03-14T08:34:14;12.10;99.90
15481;DHT22;7842;50.904;6.670;2023-03-14T08:36:40;12.10;99.90
15481;DHT22;7842;50.904;6.670;2023-03-14T08:43:58;11.90;99.90
15481;DHT22;7842;50.904;6.670;2023-03-14T08:46:24;11.70;99.90
15481;DHT22;7842;50.904;6.670;2023-03-14T08:53:42;11.30;99.90
15481;DHT22;7842;50.904;6.670;2023-03-14T08:56:08;11.30;99.90
15481;DHT22;7842;50.904;6.670;2023-03-14T08:58:36;11.20;99.90
15481;DHT22;7842;50.904;6.670;2023-03-14T09:01:04;11.20;99.90
15481;DHT22;7842;50.904;6.670;2023-03-14T09:15:40;11.30;99.90
15481;DHT22;7842;50.904;6.670;2023-03-14T09:18:07;11.30;99.90
15481;DHT22;7842;50.904;6.670;2023-03-14T09:25:25;10.90;99.90
15481;DHT22;7842;50.904;6.670;2023-03-14T09:27:50;10.30;99.90
15481;DHT22;7842;50.904;6.670;2023-03-14T09:52:32;8.90;99.90
15481;DHT22;7842;50.904;6.670;2023-03-14T10:18:04;8.80;99.90
15481;DHT22;7842;50.904;6.670;2023-03-14T10:20:38;8.70;99.90
15481;DHT22;7842;50.904;6.670;2023-03-14T10:47:50;8.80;99.90
15481;DHT22;7842;50.904;6.670;2023-03-14T11:03:08;9.00;99.90
15481;DHT22;7842;50.904;6.670;2023-03-14T11:50:42;7.50;99.90
15481;DHT22;7842;50.904;6.670;2023-03-14T11:53:16;7.50;99.90
15481;DHT22;7842;50.904;6.670;2023-03-14T12:16:03;8.00;99.90
15481;DHT22;7842;50.904;6.670;2023-03-14T12:21:09;8.00;99.90
15481;DHT22;7842;50.904;6.670;2023-03-14T12:39:47;8.00;99.90
15481;DHT22;7842;50.904;6.670;2023-03-14T12:49:53;7.90;99.90
15481;DHT22;7842;50.904;6.670;2023-03-14T12:55:13;7.90;99.90
15481;DHT22;7842;50.904;6.670;2023-03-14T13:41:23;7.00;99.90
15481;DHT22;7842;50.904;6.670;2023-03-14T13:43:49;6.60;99.90
15481;DHT22;7842;50.904;6.670;2023-03-14T13:51:20;6.10;99.90
15481;DHT22;7842;50.904;6.670;2023-03-14T13:53:54;6.10;99.90
15481;DHT22;7842;50.904;6.670;2023-03-14T13:56:21;6.10;99.90
15481;DHT22;7842;50.904;6.670;2023-03-14T13:58:48;6.80;99.90
15481;DHT22;7842;50.904;6.670;2023-03-14T14:03:51;6.30;99.90
15481;DHT22;7842;50.904;6.670;2023-03-14T14:06:32;8.10;99.90
15481;DHT22;7842;50.904;6.670;2023-03-14T14:09:11;6.80;99.90
15481;DHT22;7842;50.904;6.670;2023-03-14T14:14:34;6.60;99.90
15481;DHT22;7842;50.904;6.670;2023-03-14T14:17:01;6.70;99.90
15481;DHT22;7842;50.904;6.670;2023-03-14T14:19:30;6.80;99.90
15481;DHT22;7842;50.904;6.670;2023-03-14T14:21:58;7.10;99.90
15481;DHT22;7842;50.904;6.670;2023-03-14T14:24:29;6.80;99.90
15481;DHT22;7842;50.904;6.670;2023-03-14T14:27:01;8.60;99.90
15481;DHT22;7842;50.904;6.670;2023-03-14T14:29:29;6.90;99.90
15481;DHT22;7842;50.904;6.670;2023-03-14T14:32:03;7.00;99.90
15481;DHT22;7842;50.904;6.670;2023-03-14T14:34:29;7.00;99.90
15481;DHT22;7842;50.904;6.670;2023-03-14T14:36:54;7.00;99.90
15481;DHT22;7842;50.904;6.670;2023-03-14T14:39:25;7.00;99.90
15481;DHT22;7842;50.904;6.670;2023-03-14T14:41:54;7.00;99.90
15481;DHT22;7842;50.904;6.670;2023-03-14T14:44:32;7.70;99.90
15481;DHT22;7842;50.904;6.670;2023-03-14T14:46:58;7.60;99.90
15481;DHT22;7842;50.904;6.670;2023-03-14T14:49:30;7.00;99.90
15481;DHT22;7842;50.904;6.670;2023-03-14T14:52:03;7.00;99.90
15481;DHT22;7842;50.904;6.670;2023-03-14T14:54:35;7.20;99.90
15481;DHT22;7842;50.904;6.670;2023-03-14T14:57:04;7.10;99.90
15481;DHT22;7842;50.904;6.670;2023-03-14T14:59:30;7.10;99.90
15481;DHT22;7842;50.904;6.670;2023-03-14T15:02:01;7.10;99.90
15481;DHT22;7842;50.904;6.670;2023-03-14T15:04:30;7.20;99.90
15481;DHT22;7842;50.904;6.670;2023-03-14T15:06:56;7.10;99.90
15481;DHT22;7842;50.904;6.670;2023-03-14T15:09:22;5.50;99.90
15481;DHT22;7842;50.904;6.670;2023-03-14T15:11:48;8.00;99.90
15481;DHT22;7842;50.904;6.670;2023-03-14T15:14:14;7.30;99.90
15481;DHT22;7842;50.904;6.670;2023-03-14T15:16:41;8.40;99.90
15481;DHT22;7842;50.904;6.670;2023-03-14T15:19:23;7.20;99.90
15481;DHT22;7842;50.904;6.670;2023-03-14T15:21:50;7.20;99.90
15481;DHT22;7842;50.904;6.670;2023-03-14T15:24:16;7.20;99.90
15481;DHT22;7842;50.904;6.670;2023-03-14T15:26:41;7.30;99.90
15481;DHT22;7842;50.904;6.670;2023-03-14T15:29:10;7.70;99.90
15481;DHT22;7842;50.904;6.670;2023-03-14T15:31:38;8.20;99.90
15481;DHT22;7842;50.904;6.670;2023-03-14T15:34:04;8.10;99.90
15481;DHT22;7842;50.904;6.670;2023-03-14T15:36:32;8.20;99.90
15481;DHT22;7842;50.904;6.670;2023-03-14T15:38:59;7.20;99.90
15481;DHT22;7842;50.904;6.670;2023-03-14T15:41:25;7.30;99.90
15481;DHT22;7842;50.904;6.670;2023-03-14T15:43:52;7.20;99.90
15481;DHT22;7842;50.904;6.670;2023-03-14T15:46:17;7.20;99.90
15481;DHT22;7842;50.904;6.670;2023-03-14T15:48:44;7.10;99.90
15481;DHT22;7842;50.904;6.670;2023-03-14T15:51:10;7.10;99.90
15481;DHT22;7842;50.904;6.670;2023-03-14T15:53:36;8.10;99.90
15481;DHT22;7842;50.904;6.670;2023-03-14T15:56:04;7.20;99.90
15481;DHT22;7842;50.904;6.670;2023-03-14T15:58:30;7.20;99.90
15481;DHT22;7842;50.904;6.670;2023-03-14T16:01:00;7.20;99.90
15481;DHT22;7842;50.904;6.670;2023-03-14T16:03:27;8.10;99.90
15481;DHT22;7842;50.904;6.670;2023-03-14T16:05:52;8.50;99.90
15481;DHT22;7842;50.904;6.670;2023-03-14T16:08:18;8.60;99.90
15481;DHT22;7842;50.904;6.670;2023-03-14T16:10:45;7.20;99.90
15481;DHT22;7842;50.904;6.670;2023-03-14T16:13:10;8.50;99.90
15481;DHT22;7842;50.904;6.670;2023-03-14T16:15:36;7.70;99.90
15481;DHT22;7842;50.904;6.670;2023-03-14T16:18:01;8.30;99.90
15481;DHT22;7842;50.904;6.670;2023-03-14T16:20:28;7.20;99.90
15481;DHT22;7842;50.904;6.670;2023-03-14T16:22:54;7.60;99.90
15481;DHT22;7842;50.904;6.670;2023-03-14T16:25:23;7.20;99.90
15481;DHT22;7842;50.904;6.670;2023-03-14T16:27:48;7.20;99.90
15481;DHT22;7842;50.904;6.670;2023-03-14T16:30:14;8.50;99.90
15481;DHT22;7842;50.904;6.670;2023-03-14T16:32:40;7.10;99.90
15481;DHT22;7842;50.904;6.670;2023-03-14T16:35:06;8.20;99.90
15481;DHT22;7842;50.904;6.670;2023-03-14T16:37:32;7.10;99.90
15481;DHT22;7842;50.904;6.670;2023-03-14T16:39:58;7.10;99.90
15481;DHT22;7842;50.904;6.670;2023-03-14T16:42:24;7.10;99.90
15481;DHT22;7842;50.904;6.670;2023-03-14T16:44:49;7.10;99.90
15481;DHT22;7842;50.904;6.670;2023-03-14T16:47:15;7.10;99.90
15481;DHT22;7842;50.904;6.670;2023-03-14T16:49:40;7.10;99.90
15481;DHT22;7842;50.904;6.670;2023-03-14T16:52:06;7.20;99.90
15481;DHT22;7842;50.904;6.670;2023-03-14T16:54:34;7.30;99.90
15481;DHT22;7842;50.904;6.670;2023-03-14T16:57:00;7.30;99.90
15481;DHT22;7842;50.904;6.670;2023-03-14T16:59:25;7.50;99.90
15481;DHT22;7842;50.904;6.670;2023-03-14T17:01:54;8.30;99.90
15481;DHT22;7842;50.904;6.670;2023-03-14T17:04:20;7.90;99.90
15481;DHT22;7842;50.904;6.670;2023-03-14T17:06:46;8.80;99.90
15481;DHT22;7842;50.904;6.670;2023-03-14T17:09:11;7.20;99.90
15481;DHT22;7842;50.904;6.670;2023-03-14T17:11:37;7.20;99.90
15481;DHT22;7842;50.904;6.670;2023-03-14T17:14:03;8.30;99.90
15481;DHT22;7842;50.904;6.670;2023-03-14T17:16:29;9.20;99.90
15481;DHT22;7842;50.904;6.670;2023-03-14T17:18:55;7.00;99.90
15481;DHT22;7842;50.904;6.670;2023-03-14T17:21:21;7.10;99.90
15481;DHT22;7842;50.904;6.670;2023-03-14T17:23:47;7.60;99.90
15481;DHT22;7842;50.904;6.670;2023-03-14T17:26:13;6.90;99.90
15481;DHT22;7842;50.904;6.670;2023-03-14T17:28:40;7.90;99.90
15481;DHT22;7842;50.904;6.670;2023-03-14T17:31:07;7.00;99.90
15481;DHT22;7842;50.904;6.670;2023-03-14T17:33:34;8.00;99.90
15481;DHT22;7842;50.904;6.670;2023-03-14T17:36:00;8.10;99.90
15481;DHT22;7842;50.904;6.670;2023-03-14T17:38:25;6.80;99.90
15481;DHT22;7842;50.904;6.670;2023-03-14T17:40:51;6.80;99.90
15481;DHT22;7842;50.904;6.670;2023-03-14T17:43:17;6.70;99.90
15481;DHT22;7842;50.904;6.670;2023-03-14T17:45:43;6.70;99.90
15481;DHT22;7842;50.904;6.670;2023-03-14T17:48:09;6.60;99.90
15481;DHT22;7842;50.904;6.670;2023-03-14T17:50:35;6.60;99.90
15481;DHT22;7842;50.904;6.670;2023-03-14T17:53:01;6.70;99.90
15481;DHT22;7842;50.904;6.670;2023-03-14T17:55:26;8.90;99.90
15481;DHT22;7842;50.904;6.670;2023-03-14T17:57:52;6.60;99.90
15481;DHT22;7842;50.904;6.670;2023-03-14T18:00:18;6.60;99.90
15481;DHT22;7842;50.904;6.670;2023-03-14T18:02:44;6.50;99.90
15481;DHT22;7842;50.904;6.670;2023-03-14T18:05:10;6.50;99.90
15481;DHT22;7842;50.904;6.670;2023-03-14T18:07:37;6.60;99.90
15481;DHT22;7842;50.904;6.670;2023-03-14T18:10:04;6.40;99.90
15481;DHT22;7842;50.904;6.670;2023-03-14T18:12:31;6.40;99.90
15481;DHT22;7842;50.904;6.670;2023-03-14T18:14:57;6.40;99.90
15481;DHT22;7842;50.904;6.670;2023-03-14T18:17:23;6.40;99.90
15481;DHT22;7842;50.904;6.670;2023-03-14T18:19:49;6.30;99.90
15481;DHT22;7842;50.904;6.670;2023-03-14T18:22:14;6.30;99.90
15481;DHT22;7842;50.904;6.670;2023-03-14T18:24:40;6.20;99.90
15481;DHT22;7842;50.904;6.670;2023-03-14T18:27:06;6.50;99.90
15481;DHT22;7842;50.904;6.670;2023-03-14T18:29:32;6.20;99.90
15481;DHT22;7842;50.904;6.670;2023-03-14T18:31:58;6.10;99.90
15481;DHT22;7842;50.904;6.670;2023-03-14T18:34:25;6.10;99.90
15481;DHT22;7842;50.904;6.670;2023-03-14T18:36:50;6.10;99.90
15481;DHT22;7842;50.904;6.670;2023-03-14T18:39:16;6.00;99.90
15481;DHT22;7842;50.904;6.670;2023-03-14T18:41:42;6.00;99.90
15481;DHT22;7842;50.904;6.670;2023-03-14T18:44:08;6.00;99.90
15481;DHT22;7842;50.904;6.670;2023-03-14T18:46:34;5.90;99.90
15481;DHT22;7842;50.904;6.670;2023-03-14T18:48:59;5.90;99.90
15481;DHT22;7842;50.904;6.670;2023-03-14T18:51:29;5.90;99.90
15481;DHT22;7842;50.904;6.670;2023-03-14T18:53:56;6.10;99.90
15481;DHT22;7842;50.904;6.670;2023-03-14T18:56:26;5.90;99.90
15481;DHT22;7842;50.904;6.670;2023-03-14T18:58:52;5.80;99.90
15481;DHT22;7842;50.904;6.670;2023-03-14T19:01:18;7.10;99.90
15481;DHT22;7842;50.904;6.670;2023-03-14T19:03:45;5.80;99.90
15481;DHT22;7842;50.904;6.670;2023-03-14T19:06:13;5.70;99.90
15481;DHT22;7842;50.904;6.670;2023-03-14T19:08:39;5.80;99.90
15481;DHT22;7842;50.904;6.670;2023-03-14T19:11:08;5.70;99.90
15481;DHT22;7842;50.904;6.670;2023-03-14T19:13:34;5.70;99.90
15481;DHT22;7842;50.904;6.670;2023-03-14T19:16:00;5.70;99.90
15481;DHT22;7842;50.904;6.670;2023-03-14T19:18:27;7.40;99.90
15481;DHT22;7842;50.904;6.670;2023-03-14T19:21:00;5.70;99.90
15481;DHT22;7842;50.904;6.670;2023-03-14T19:23:28;8.60;99.90
15481;DHT22;7842;50.904;6.670;2023-03-14T19:25:54;5.60;99.90
15481;DHT22;7842;50.904;6.670;2023-03-14T19:28:21;5.60;99.90
15481;DHT22;7842;50.904;6.670;2023-03-14T19:30:47;7.90;99.90
15481;DHT22;7842;50.904;6.670;2023-03-14T19:33:14;5.50;99.90
15481;DHT22;7842;50.904;6.670;2023-03-14T19:35:40;5.50;99.90
15481;DHT22;7842;50.904;6.670;2023-03-14T19:38:07;5.50;99.90
15481;DHT22;7842;50.904;6.670;2023-03-14T19:40:34;5.50;99.90
15481;DHT22;7842;50.904;6.670;2023-03-14T19:43:00;5.40;99.90
15481;DHT22;7842;50.904;6.670;2023-03-14T19:45:25;7.50;99.90
15481;DHT22;7842;50.904;6.670;2023-03-14T19:47:59;5.30;99.90
15481;DHT22;7842;50.904;6.670;2023-03-14T19:50:26;5.30;99.90
15481;DHT22;7842;50.904;6.670;2023-03-14T19:52:55;5.30;99.90
15481;DHT22;7842;50.904;6.670;2023-03-14T19:55:22;7.70;99.90
15481;DHT22;7842;50.904;6.670;2023-03-14T19:57:48;7.50;99.90
15481;DHT22;7842;50.904;6.670;2023-03-14T20:00:16;6.20;99.90
15481;DHT22;7842;50.904;6.670;2023-03-14T20:02:44;5.20;99.90
15481;DHT22;7842;50.904;6.670;2023-03-14T20:05:10;6.50;99.90
15481;DHT22;7842;50.904;6.670;2023-03-14T20:07:38;5.20;99.90
15481;DHT22;7842;50.904;6.670;2023-03-14T20:10:04;8.40;99.90
15481;DHT22;7842;50.904;6.670;2023-03-14T20:12:30;5.10;99.90
15481;DHT22;7842;50.904;6.670;2023-03-14T20:14:56;5.10;99.90
15481;DHT22;7842;50.904;6.670;2023-03-14T20:17:22;5.10;99.90
15481;DHT22;7842;50.904;6.670;2023-03-14T20:19:48;5.10;99.90
15481;DHT22;7842;50.904;6.670;2023-03-14T20:22:13;5.10;99.90
15481;DHT22;7842;50.904;6.670;2023-03-14T20:24:39;6.10;99.90
15481;DHT22;7842;50.904;6.670;2023-03-14T20:27:05;5.00;99.90
15481;DHT22;7842;50.904;6.670;2023-03-14T20:29:31;4.90;99.90
15481;DHT22;7842;50.904;6.670;2023-03-14T20:31:56;4.90;99.90
15481;DHT22;7842;50.904;6.670;2023-03-14T20:34:22;6.50;99.90
15481;DHT22;7842;50.904;6.670;2023-03-14T20:36:48;4.90;99.90
15481;DHT22;7842;50.904;6.670;2023-03-14T20:39:17;4.80;99.90
15481;DHT22;7842;50.904;6.670;2023-03-14T20:41:43;6.80;99.90
15481;DHT22;7842;50.904;6.670;2023-03-14T20:44:09;4.70;99.90
15481;DHT22;7842;50.904;6.670;2023-03-14T20:46:39;4.60;99.90
15481;DHT22;7842;50.904;6.670;2023-03-14T20:49:05;4.50;99.90
15481;DHT22;7842;50.904;6.670;2023-03-14T20:51:30;4.50;99.90
15481;DHT22;7842;50.904;6.670;2023-03-14T20:53:56;4.40;99.90
15481;DHT22;7842;50.904;6.670;2023-03-14T20:56:22;4.10;99.90
15481;DHT22;7842;50.904;6.670;2023-03-14T20:58:47;4.30;99.90
15481;DHT22;7842;50.904;6.670;2023-03-14T21:01:13;6.80;99.90
15481;DHT22;7842;50.904;6.670;2023-03-14T21:03:38;4.20;99.90
15481;DHT22;7842;50.904;6.670;2023-03-14T21:06:11;4.20;99.90
15481;DHT22;7842;50.904;6.670;2023-03-14T21:08:51;4.20;99.90
15481;DHT22;7842;50.904;6.670;2023-03-14T21:11:25;4.20;99.90
15481;DHT22;7842;50.904;6.670;2023-03-14T21:13:51;6.50;99.90
15481;DHT22;7842;50.904;6.670;2023-03-14T21:16:16;4.10;99.90
15481;DHT22;7842;50.904;6.670;2023-03-14T21:18:42;4.10;99.90
15481;DHT22;7842;50.904;6.670;2023-03-14T21:21:10;4.10;99.90
15481;DHT22;7842;50.904;6.670;2023-03-14T21:23:36;4.10;99.90
15481;DHT22;7842;50.904;6.670;2023-03-14T21:26:01;4.10;99.90
15481;DHT22;7842;50.904;6.670;2023-03-14T21:28:27;4.10;99.90
15481;DHT22;7842;50.904;6.670;2023-03-14T21:30:53;4.10;99.90
15481;DHT22;7842;50.904;6.670;2023-03-14T21:33:19;4.60;99.90
15481;DHT22;7842;50.904;6.670;2023-03-14T21:35:45;4.00;99.90
15481;DHT22;7842;50.904;6.670;2023-03-14T21:38:10;4.40;99.90
15481;DHT22;7842;50.904;6.670;2023-03-14T21:40:37;4.00;99.90
15481;DHT22;7842;50.904;6.670;2023-03-14T21:43:03;3.90;99.90
15481;DHT22;7842;50.904;6.670;2023-03-14T21:45:29;3.90;99.90
15481;DHT22;7842;50.904;6.670;2023-03-14T21:47:56;3.90;99.90
15481;DHT22;7842;50.904;6.670;2023-03-14T21:50:23;3.90;99.90
15481;DHT22;7842;50.904;6.670;2023-03-14T21:52:50;3.80;99.90
15481;DHT22;7842;50.904;6.670;2023-03-14T21:55:17;3.80;99.90
15481;DHT22;7842;50.904;6.670;2023-03-14T21:57:48;3.80;99.90
15481;DHT22;7842;50.904;6.670;2023-03-14T22:00:16;3.70;99.90
15481;DHT22;7842;50.904;6.670;2023-03-14T22:02:47;3.80;99.90
15481;DHT22;7842;50.904;6.670;2023-03-14T22:05:14;3.80;99.90
15481;DHT22;7842;50.904;6.670;2023-03-14T22:07:42;3.70;99.90
15481;DHT22;7842;50.904;6.670;2023-03-14T22:10:09;1.00;99.90
15481;DHT22;7842;50.904;6.670;2023-03-14T22:12:36;3.70;99.90
15481;DHT22;7842;50.904;6.670;2023-03-14T22:15:02;3.70;99.90
15481;DHT22;7842;50.904;6.670;2023-03-14T22:17:28;6.70;99.90
15481;DHT22;7842;50.904;6.670;2023-03-14T22:19:54;3.70;99.90
15481;DHT22;7842;50.904;6.670;2023-03-14T22:22:20;3.70;99.90
15481;DHT22;7842;50.904;6.670;2023-03-14T22:24:45;3.60;99.90
15481;DHT22;7842;50.904;6.670;2023-03-14T22:27:11;3.60;99.90
15481;DHT22;7842;50.904;6.670;2023-03-14T22:29:36;3.60;99.90
15481;DHT22;7842;50.904;6.670;2023-03-14T22:32:05;3.60;99.90
15481;DHT22;7842;50.904;6.670;2023-03-14T22:34:32;3.60;99.90
15481;DHT22;7842;50.904;6.670;2023-03-14T22:37:02;3.50;99.90
15481;DHT22;7842;50.904;6.670;2023-03-14T22:39:28;3.50;99.90
15481;DHT22;7842;50.904;6.670;2023-03-14T22:41:55;3.50;99.90
15481;DHT22;7842;50.904;6.670;2023-03-14T22:44:21;3.50;99.90
15481;DHT22;7842;50.904;6.670;2023-03-14T22:46:47;3.50;99.90
15481;DHT22;7842;50.904;6.670;2023-03-14T22:49:13;3.40;99.90
15481;DHT22;7842;50.904;6.670;2023-03-14T22:51:38;3.50;99.90
15481;DHT22;7842;50.904;6.670;2023-03-14T22:54:04;3.40;99.90
15481;DHT22;7842;50.904;6.670;2023-03-14T22:56:29;3.40;99.90
15481;DHT22;7842;50.904;6.670;2023-03-14T22:58:56;3.30;99.90
15481;DHT22;7842;50.904;6.670;2023-03-14T23:01:22;3.30;99.90
15481;DHT22;7842;50.904;6.670;2023-03-14T23:03:48;3.30;99.90
15481;DHT22;7842;50.904;6.670;2023-03-14T23:06:14;3.30;99.90
15481;DHT22;7842;50.904;6.670;2023-03-14T23:08:40;3.30;99.90
15481;DHT22;7842;50.904;6.670;2023-03-14T23:11:06;3.30;99.90
15481;DHT22;7842;50.904;6.670;2023-03-14T23:13:32;3.80;99.90
15481;DHT22;7842;50.904;6.670;2023-03-14T23:15:59;3.30;99.90
15481;DHT22;7842;50.904;6.670;2023-03-14T23:18:26;3.30;99.90
15481;DHT22;7842;50.904;6.670;2023-03-14T23:23:30;3.30;99.90
15481;DHT22;7842;50.904;6.670;2023-03-14T23:25:55;3.40;99.90
15481;DHT22;7842;50.904;6.670;2023-03-14T23:28:21;3.40;99.90
15481;DHT22;7842;50.904;6.670;2023-03-14T23:30:53;3.40;99.90
15481;DHT22;7842;50.904;6.670;2023-03-14T23:33:19;3.50;99.90
15481;DHT22;7842;50.904;6.670;2023-03-14T23:35:45;3.80;99.90
15481;DHT22;7842;50.904;6.670;2023-03-14T23:38:11;3.40;99.90
15481;DHT22;7842;50.904;6.670;2023-03-14T23:40:36;3.40;99.90
15481;DHT22;7842;50.904;6.670;2023-03-14T23:43:02;3.40;99.90
15481;DHT22;7842;50.904;6.670;2023-03-14T23:45:28;3.60;99.90
15481;DHT22;7842;50.904;6.670;2023-03-14T23:47:53;3.40;99.90
15481;DHT22;7842;50.904;6.670;2023-03-14T23:50:19;3.40;99.90
15481;DHT22;7842;50.904;6.670;2023-03-14T23:52:44;3.40;99.90
15481;DHT22;7842;50.904;6.670;2023-03-14T23:55:10;3.50;99.90
15481;DHT22;7842;50.904;6.670;2023-03-14T23:57:36;3.50;99.90
